Blue Oak Ranch Reserve, California Weather observations

Data are for 10 minute period ending at time listed.
 Day   Time   Solar   Ave.   Ave.  Ave.  Vector  Max.   Baro.   Total    
  of    of     Rad.   Air    Rel.  Wind   Wind   Wind  Press.  Precip.   
Year   Day            Temp.  Hum.  Speed  Dir.   Gust                    
2018   (PST)  Kw/m2    F      %     mph   deg.    mph    mb.     in.     
-------------------------------------------------------------------------
 227   21:40   0.00   55.6    82    1.7   296     2.3   948.9    0.00 
 227   21:50   0.00   55.2    82    0.3   328     1.4   948.8    0.00 
 227   22:00   0.00   54.8    84    0.2    61     1.0   948.8    0.00 
 227   22:10   0.00   54.7    84    0.0     0     0.0   948.9    0.00 
 227   22:20   0.00   54.7    85    0.0   332     0.9   948.9    0.00 
 227   22:30   0.00   54.6    84    0.3   348     1.4   949.0    0.00 
 227   22:40   0.00   54.2    86    0.0     0     0.0   949.0    0.00 
 227   22:50   0.00   54.2    86    0.0     0     0.0   949.0    0.00 
 227   23:00   0.00   53.7    87    0.0     0     0.0   949.1    0.00 
 227   23:10   0.00   53.4    88    0.0    51     0.6   949.2    0.00 
 227   23:20   0.00   53.3    88    1.0    49     1.5   949.3    0.00 
 227   23:30   0.00   52.9    87    0.1    47     0.8   949.2    0.00 
 227   23:40   0.00   52.9    88    0.4    47     1.2   949.2    0.00 
 227   23:50   0.00   52.5    88    0.0     8     0.2   949.2    0.00 
 228    0:00   0.00   52.4    89    0.0     0     0.0   949.2    0.00 
 228    0:10   0.00   52.4    89    0.0     0     0.0   949.2    0.00 
 228    0:20   0.00   52.3    89    0.0    49     0.1   949.2    0.00 
 228    0:30   0.00   52.1    89    0.0    23     0.7   949.3    0.00 
 228    0:40   0.00   51.8    89    0.7   296     2.5   949.2    0.00 
 228    0:50   0.00   51.2    90    0.9   296     2.6   949.3    0.00 
 228    1:00   0.00   51.6    91    1.1    53     2.3   949.4    0.00 
 228    1:10   0.00   51.4    90    0.2   301     1.2   949.4    0.00 
 228    1:20   0.00   51.1    90    0.5   305     1.8   949.3    0.00 
 228    1:30   0.00   50.8    90    0.6    37     1.6   949.2    0.00 
 228    1:40   0.00   50.9    91    0.1    70     1.1   949.2    0.00 
 228    1:50   0.00   51.0    91    0.0    60     0.6   949.3    0.00 
 228    2:00   0.00   51.1    91    0.6    65     1.5   949.3    0.00 
 228    2:10   0.00   50.6    91    1.6   281     3.1   949.4    0.00 
 228    2:20   0.00   50.3    91    1.1    44     2.5   949.5    0.00 
 228    2:30   0.00   50.6    92    1.2    56     2.4   949.5    0.00 
 228    2:40   0.00   49.9    91    0.8   315     1.8   949.4    0.00 
 228    2:50   0.00   49.8    92    1.0   296     1.7   949.5    0.00 
 228    3:00   0.00   49.8    92    1.5    62     3.0   949.5    0.00 
 228    3:10   0.00   49.6    92    1.6    64     3.4   949.4    0.00 
 228    3:20   0.00   49.1    92    1.7   298     3.4   949.3    0.00 
 228    3:30   0.00   49.4    92    1.3   295     2.5   949.4    0.00 
 228    3:40   0.00   49.5    92    0.5   348     2.0   949.5    0.00 
 228    3:50   0.00   49.4    93    0.1    68     1.0   949.5    0.00 
 228    4:00   0.00   49.5    93    0.0    48     0.5   949.4    0.00 
 228    4:10   0.00   49.5    92    1.0   295     2.0   949.4    0.00 
 228    4:20   0.00   49.7    92    2.1   322     3.8   949.5    0.00 
 228    4:30   0.00   49.2    93    1.0    50     3.2   949.5    0.00 
 228    4:40   0.00   49.5    93    2.1   300     4.2   949.5    0.00 
 228    4:50   0.00   49.0    93    0.8    57     2.3   949.6    0.00 
 228    5:00   0.00   48.9    92    1.1    69     2.5   949.6    0.00 
 228    5:10   0.00   48.5    92    2.2   284     3.7   949.7    0.00 
 228    5:20   0.00   48.3    93    0.9    57     2.3   949.8    0.00 
 228    5:30   0.00   48.7    93    1.0    62     2.0   950.0    0.00 
 228    5:40   0.01   48.4    93    2.0    79     3.2   950.0    0.00 
 228    5:50   0.01   48.4    92    1.6   323     3.7   949.8    0.00 
 228    6:00   0.02   48.6    92    4.5   280     6.6   950.0    0.00 
 228    6:10   0.02   50.6    93    1.8   264     4.7   950.5    0.00 
 228    6:20   0.05   51.6    93    1.5    77     2.7   950.7    0.00 
 228    6:30   0.10   52.1    92    1.2    87     2.7   950.6    0.00 
 228    6:40   0.18   54.5    90    1.6   292     3.4   950.7    0.00 
 228    6:50   0.21   56.7    84    0.8   280     2.0   950.9    0.00 
 228    7:00   0.24   59.1    78    1.1   185     3.4   951.1    0.00 
 228    7:10   0.27   59.1    78    1.3   137     3.0   951.0    0.00 
 228    7:20   0.30   60.2    76    1.7   220     3.4   951.0    0.00 
 228    7:30   0.33   61.7    73    2.8   243     5.6   951.3    0.00 
 228    7:40   0.36   62.1    72    1.0   221     3.1   951.3    0.00 
 228    7:50   0.40   64.1    68    2.3   267     5.8   951.4    0.00 
 228    8:00   0.43   64.8    67    2.1   253     4.8   951.5    0.00 
 228    8:10   0.47   66.5    63    1.8   246     3.9   951.4    0.00 
 228    8:20   0.50   67.4    62    2.2   248     4.5   951.4    0.00 
 228    8:30   0.54   68.7    60    3.4   254     6.2   951.5    0.00 
 228    8:40   0.56   67.7    62    3.6   240     6.0   951.7    0.00 
 228    8:50   0.59   66.3    64    3.0   227     6.3   951.7    0.00 
 228    9:00   0.63   68.6    60    2.9   252     5.0   951.7    0.00 
 228    9:10   0.66   69.1    59    4.4   234     6.9   951.8    0.00 
 228    9:20   0.68   69.2    58    3.8   237     6.3   951.9    0.00 
 228    9:30   0.71   70.9    56    4.5   264     8.1   952.0    0.00 
 228    9:40   0.74   72.0    54    3.3   255     6.3   952.0    0.00 
 228    9:50   0.76   72.7    53    3.9   255     6.6   952.1    0.00 
 228   10:00   0.78   71.9    54    4.8   237     8.3   952.3    0.00 
 228   10:10   0.81   72.8    52    3.1   247     6.7   952.3    0.00 
 228   10:20   0.83   74.2    50    1.2   259     4.2   952.1    0.00 
 228   10:30   0.85   77.3    45    2.0   254     4.8   952.1    0.00 
 228   10:40   0.87   79.6    43    4.5   258     7.5   952.1    0.00 
 228   10:50   0.88   78.7    43    5.1   232     7.5   952.2    0.00 
 228   11:00   0.90   78.2    44    5.0   239     8.0   952.1    0.00 
 228   11:10   0.91   78.1    44    5.3   241     8.1   952.2    0.00 
 228   11:20   0.92   77.8    45    4.7   255    11.0   952.3    0.00 
 228   11:30   0.93   77.2    45    4.6   230     8.4   952.3    0.00 
 228   11:40   0.94   79.0    43    2.9   228     5.6   952.2    0.00 
 228   11:50   0.94   81.3    40    4.0   243     7.2   952.1    0.00 
 228   12:00   0.95   82.4    39    4.3   249     7.4   952.0    0.00 
 228   12:10   0.95   83.1    38    5.4   264     8.4   952.0    0.00 
 228   12:20   0.96   82.9    38    4.1   255     8.4   952.0    0.00 
 228   12:30   0.97   82.8    39    4.9   263     8.3   951.9    0.00 
 228   12:40   0.95   81.6    40    4.7   244     8.0   951.8    0.00 
 228   12:50   0.94   81.6    40    5.7   236     8.9   951.8    0.00 
 228   13:00   0.91   82.7    39    5.8   265     9.9   951.8    0.00 
 228   13:10   0.93   82.5    39    5.5   248     9.9   951.8    0.00 
 228   13:20   0.92   81.7    40    5.1   236     9.0   951.8    0.00 
 228   13:30   0.91   80.9    41    5.8   233     9.9   951.8    0.00 
 228   13:40   0.89   80.8    41    6.1   227     9.0   951.7    0.00 
 228   13:50   0.88   81.5    40    5.5   231     9.6   951.6    0.00 
 228   14:00   0.86   82.9    39    5.2   250     9.4   951.7    0.00 
 228   14:10   0.84   82.8    39    5.4   257    10.7   951.7    0.00 
 228   14:20   0.82   83.7    38    5.3   254    10.1   951.7    0.00 
 228   14:30   0.80   82.8    39    4.4   238     8.8   951.7    0.00 
 228   14:40   0.78   82.1    40    4.9   247     9.9   951.6    0.00 
 228   14:50   0.76   80.8    41    5.1   242    10.2   951.5    0.00 
 228   15:00   0.73   80.5    43    5.6   252    10.4   951.5    0.00 
 228   15:10   0.70   79.6    44    4.2   253     8.8   951.5    0.00 
 228   15:20   0.67   79.7    43    4.2   245     9.2   951.5    0.00 
 228   15:30   0.65   79.5    43    4.8   249     9.5   951.5    0.00 
 228   15:40   0.61   79.6    43    5.0   246     9.5   951.5    0.00 
 228   15:50   0.58   79.1    44    5.3   249    10.2   951.5    0.00 
 228   16:00   0.55   77.6    46    5.0   244     9.4   951.5    0.00 
 228   16:10   0.52   78.2    44    3.4   238     6.9   951.5    0.00 
 228   16:20   0.48   78.3    44    4.1   234     7.6   951.5    0.00 
 228   16:30   0.45   77.8    45    3.1   254     6.5   951.5    0.00 
 228   16:40   0.42   78.1    45    3.4   246     6.5   951.5    0.00 
 228   16:50   0.38   77.5    46    3.6   244     6.5   951.5    0.00 
 228   17:00   0.35   79.6    43    2.6   264     4.5   951.4    0.00 
 228   17:10   0.31   79.0    44    4.3   265     6.5   951.4    0.00 
 228   17:20   0.28   78.2    44    3.9   268     6.7   951.3    0.00 
 228   17:30   0.24   77.0    46    3.3   262     5.7   951.3    0.00 
 228   17:40   0.21   77.7    45    2.2   268     4.5   951.2    0.00 
 228   17:50   0.18   77.3    45    2.8   255     6.5   951.1    0.00 
 228   18:00   0.14   74.8    48    4.3   261     7.4   951.2    0.00 
 228   18:10   0.12   73.1    50    2.2   252     3.9   951.2    0.00 
 228   18:20   0.09   72.0    52    2.1   258     4.2   951.2    0.00 
 228   18:30   0.06   70.6    54    2.8   261     4.7   951.4    0.00 
 228   18:40   0.03   69.1    57    1.3   261     3.2   951.4    0.00 
 228   18:50   0.01   67.8    59    0.1   277     0.7   951.4    0.00 
 228   19:00   0.01   66.5    61    0.6   309     1.7   951.5    0.00 
 228   19:10   0.00   65.2    63    0.6    56     1.8   951.5    0.00 
 228   19:20   0.00   64.6    64    0.5   280     1.6   951.5    0.00 
 228   19:30   0.00   64.0    65    1.3   290     2.0   951.6    0.00 
 228   19:40   0.00   63.6    66    0.1   311     1.2   951.6    0.00 
 228   19:50   0.00   63.0    67    0.0    22     0.2   951.6    0.00 
 228   20:00   0.00   62.7    68    0.0     0     0.0   951.7    0.00 
 228   20:10   0.00   62.1    69    0.5    35     1.6   951.7    0.00 
 228   20:20   0.00   61.9    68    1.1    49     1.9   951.8    0.00 
 228   20:30   0.00   61.1    69    1.4   293     2.0   952.0    0.00 
 228   20:40   0.00   60.7    71    0.7    47     1.5   952.2    0.00 
 228   20:50   0.00   61.0    71    0.5    50     1.5   952.2    0.00 
 228   21:00   0.00   60.5    71    0.1    53     0.8   952.2    0.00 
 228   21:10   0.00   60.2    72    0.2    57     1.0   952.3    0.00 
 228   21:20   0.00   59.9    72    0.0     0     0.0   952.3    0.00 
 228   21:30   0.00   59.8    73    0.0     0     0.0   952.3    0.00 

Return to Blue Oak Ranch Reserve graphs page.


Western Regional Climate Center,wrcc@dri.edu